Time;durP1;ratioP1;P1;durP2;ratioP2;P2;SDS_P1;SDS_P2;PMS_P1;PMS_P2;Temp;Humidity;BMP_temperature;BMP_pressure;BME280_temperature;BME280_humidity;BME280_pressure;Samples;Min_cycle;Max_cycle;Signal;HPM_P1;HPM_P2
2022/06/17 00:00:29;;;;;;;5.23;3.33;;;13.40;99.90;;;;;;5037298;28;20214;-47
2022/06/17 00:02:56;;;;;;;6.43;3.20;;;13.40;99.90;;;;;;5044246;28;20212;-47
2022/06/17 00:05:22;;;;;;;5.80;3.23;;;13.40;99.90;;;;;;5042197;28;21020;-47
2022/06/17 00:07:49;;;;;;;4.17;3.77;;;13.40;99.90;;;;;;5030789;28;20215;-46
2022/06/17 00:10:21;;;;;;;3.50;2.97;;;13.40;99.90;;;;;;5040866;28;20211;-46
2022/06/17 00:12:48;;;;;;;4.80;3.97;;;13.40;99.90;;;;;;5045400;28;20223;-44
2022/06/17 00:15:17;;;;;;;4.93;3.27;;;13.40;99.90;;;;;;5034062;28;20351;-45
2022/06/17 00:17:47;;;;;;;3.73;3.23;;;13.40;99.90;;;;;;5045102;28;20199;-45
2022/06/17 00:20:18;;;;;;;4.20;3.80;;;13.40;99.90;;;;;;5040922;28;20276;-44
2022/06/17 00:22:46;;;;;;;6.50;3.50;;;13.30;99.90;;;;;;5026732;28;20582;-48
2022/06/17 00:25:23;;;;;;;6.57;3.60;;;13.20;99.90;;;;;;5040287;28;20210;-45
2022/06/17 00:27:51;;;;;;;4.37;3.70;;;13.20;99.90;;;;;;5042824;28;20219;-48
2022/06/17 00:30:21;;;;;;;3.83;3.50;;;13.10;99.90;;;;;;5033903;28;20308;-47
2022/06/17 00:32:48;;;;;;;5.20;3.47;;;13.10;99.90;;;;;;5043240;28;20197;-44
2022/06/17 00:35:15;;;;;;;4.23;3.60;;;13.00;99.90;;;;;;5040225;28;20935;-45
2022/06/17 00:37:42;;;;;;;3.80;3.33;;;12.90;99.90;;;;;;5029255;28;21470;-47
2022/06/17 00:40:16;;;;;;;6.57;3.63;;;12.90;99.90;;;;;;5040538;28;20206;-46
2022/06/17 00:42:43;;;;;;;4.97;3.77;;;12.80;99.90;;;;;;5044531;28;20195;-45
2022/06/17 00:45:16;;;;;;;4.07;3.57;;;12.70;99.90;;;;;;5033723;28;20229;-47
2022/06/17 00:47:50;;;;;;;4.43;4.03;;;12.70;99.90;;;;;;5043193;28;20247;-44
2022/06/17 00:50:25;;;;;;;4.67;3.50;;;12.70;99.90;;;;;;5034624;28;20223;-45
2022/06/17 00:53:04;;;;;;;4.20;3.83;;;12.70;99.90;;;;;;5044029;28;20668;-48
2022/06/17 00:55:36;;;;;;;4.03;3.70;;;12.60;99.90;;;;;;5037323;28;20286;-44
2022/06/17 00:58:14;;;;;;;4.20;3.60;;;12.60;99.90;;;;;;5040477;28;20210;-47
2022/06/17 01:00:41;;;;;;;3.90;3.43;;;12.50;99.90;;;;;;5035152;28;20237;-45
2022/06/17 01:03:18;;;;;;;3.73;3.27;;;12.50;99.90;;;;;;5033891;28;20207;-45
2022/06/17 01:05:48;;;;;;;4.17;3.13;;;12.40;99.90;;;;;;5044037;28;20882;-45
2022/06/17 01:09:57;;;;;;;3.93;3.60;;;12.40;99.90;;;;;;5032515;28;20273;-45
2022/06/17 01:11:09;;;;;;;3.67;3.37;;;12.40;99.90;;;;;;5025028;28;20313;-46
2022/06/17 01:13:37;;;;;;;4.80;3.97;;;12.40;99.90;;;;;;5042521;28;20195;-44
2022/06/17 01:16:05;;;;;;;6.57;4.30;;;12.30;99.90;;;;;;5033252;28;20207;-50
2022/06/17 01:18:39;;;;;;;4.00;3.70;;;12.30;99.90;;;;;;5041909;28;20199;-45
2022/06/17 01:21:28;;;;;;;3.77;3.43;;;12.30;99.90;;;;;;5038878;28;20227;-46
2022/06/17 01:23:57;;;;;;;5.37;4.50;;;12.20;99.90;;;;;;5022787;28;20681;-47
2022/06/17 01:26:25;;;;;;;7.50;4.47;;;12.20;99.90;;;;;;5026212;28;20207;-44
2022/06/17 01:28:52;;;;;;;6.13;4.13;;;12.10;99.90;;;;;;5043623;28;20210;-49
2022/06/17 01:31:19;;;;;;;4.40;4.00;;;12.10;99.90;;;;;;5030369;28;21673;-45
2022/06/17 01:33:46;;;;;;;5.67;4.37;;;12.10;99.90;;;;;;5036029;28;20703;-45
2022/06/17 01:36:18;;;;;;;4.90;4.23;;;12.10;99.90;;;;;;5039571;28;20194;-47
2022/06/17 01:38:48;;;;;;;6.50;5.10;;;12.10;99.90;;;;;;5042405;28;20282;-49
2022/06/17 01:41:18;;;;;;;7.60;4.80;;;12.10;99.90;;;;;;5025112;28;20231;-45
2022/06/17 01:43:49;;;;;;;4.80;4.40;;;12.10;99.90;;;;;;5038926;28;20307;-47
2022/06/17 01:46:19;;;;;;;5.00;3.63;;;12.00;99.90;;;;;;5039446;28;20993;-46
2022/06/17 01:48:52;;;;;;;4.80;4.30;;;12.00;99.90;;;;;;5025773;28;20241;-48
2022/06/17 01:51:22;;;;;;;5.07;4.53;;;11.90;99.90;;;;;;5038653;28;20226;-49
2022/06/17 01:53:54;;;;;;;6.07;5.43;;;11.90;99.90;;;;;;5041857;28;20257;-45
2022/06/17 01:56:24;;;;;;;5.40;4.83;;;11.90;99.90;;;;;;5040089;28;20195;-47
2022/06/17 01:58:57;;;;;;;5.97;5.27;;;12.00;99.90;;;;;;5026522;28;20229;-48
2022/06/17 02:01:28;;;;;;;6.03;5.17;;;12.00;99.90;;;;;;5038487;28;20222;-45
2022/06/17 02:03:57;;;;;;;5.07;4.57;;;12.00;99.90;;;;;;5029348;28;20238;-47
2022/06/17 02:06:29;;;;;;;5.70;5.17;;;12.00;99.90;;;;;;5029738;28;20218;-45
2022/06/17 02:08:57;;;;;;;6.37;5.10;;;12.00;99.90;;;;;;5034767;28;20223;-50
2022/06/17 02:11:27;;;;;;;5.53;5.03;;;11.90;99.90;;;;;;5039448;28;20242;-45
2022/06/17 02:14:06;;;;;;;5.80;5.13;;;11.90;99.90;;;;;;5023903;28;20207;-48
2022/06/17 02:16:58;;;;;;;5.37;4.87;;;11.80;99.90;;;;;;5038638;28;20282;-46
2022/06/17 02:19:33;;;;;;;5.23;4.73;;;11.80;99.90;;;;;;5031335;28;20883;-45
2022/06/17 02:22:05;;;;;;;5.33;4.83;;;11.80;99.90;;;;;;5033737;28;20226;-48
2022/06/17 02:24:33;;;;;;;5.50;5.00;;;11.80;99.90;;;;;;5040933;28;20235;-47
2022/06/17 02:27:03;;;;;;;5.40;4.73;;;11.80;99.90;;;;;;5035047;28;20209;-45
2022/06/17 02:29:33;;;;;;;7.20;5.60;;;11.90;99.90;;;;;;5036231;28;20290;-46
2022/06/17 02:32:06;;;;;;;6.80;5.70;;;11.80;99.90;;;;;;5040688;28;20223;-46
2022/06/17 02:34:40;;;;;;;6.30;5.10;;;11.80;99.90;;;;;;5033527;28;20208;-45
2022/06/17 02:37:12;;;;;;;5.97;5.43;;;11.80;99.90;;;;;;5037890;28;20219;-47
2022/06/17 02:39:43;;;;;;;6.00;5.50;;;11.80;99.90;;;;;;5041632;28;20720;-48
2022/06/17 02:42:19;;;;;;;6.60;5.30;;;11.70;99.90;;;;;;5038846;28;20207;-49
2022/06/17 02:44:50;;;;;;;5.53;5.03;;;11.60;99.90;;;;;;5026528;28;20218;-52
2022/06/17 02:47:18;;;;;;;5.50;4.60;;;11.50;99.90;;;;;;5037634;28;20215;-46
2022/06/17 02:49:46;;;;;;;7.40;5.00;;;11.60;99.90;;;;;;5040465;28;20253;-44
2022/06/17 02:52:17;;;;;;;5.30;4.80;;;11.50;99.90;;;;;;5031779;28;20215;-44
2022/06/17 02:54:49;;;;;;;5.33;4.83;;;11.40;99.90;;;;;;5038787;28;20199;-47
2022/06/17 02:57:22;;;;;;;5.80;4.90;;;11.40;99.90;;;;;;5035637;28;20205;-45
2022/06/17 02:59:53;;;;;;;6.53;5.23;;;11.40;99.90;;;;;;5031403;28;20639;-46
2022/06/17 03:02:25;;;;;;;5.70;5.20;;;11.30;99.90;;;;;;5039290;28;20187;-47
2022/06/17 03:04:59;;;;;;;5.83;5.03;;;11.30;99.90;;;;;;5041207;28;20195;-50
2022/06/17 03:07:29;;;;;;;5.93;5.33;;;11.40;99.90;;;;;;5038543;28;20230;-48
2022/06/17 03:10:15;;;;;;;5.87;5.27;;;11.40;99.90;;;;;;5041925;28;20203;-47
2022/06/17 03:12:45;;;;;;;5.90;5.30;;;11.30;99.90;;;;;;5045015;28;20218;-45
2022/06/17 03:15:15;;;;;;;5.80;5.20;;;11.20;99.90;;;;;;5019967;28;20739;-46
2022/06/17 03:17:46;;;;;;;5.73;5.20;;;11.30;99.90;;;;;;5044613;28;20195;-48
2022/06/17 03:20:17;;;;;;;8.30;5.10;;;11.40;99.90;;;;;;5033865;28;23046;-45
2022/06/17 03:22:47;;;;;;;6.00;5.40;;;11.40;99.90;;;;;;5040814;28;20227;-45
2022/06/17 03:25:20;;;;;;;8.23;5.20;;;11.40;99.90;;;;;;5040171;28;20188;-46
2022/06/17 03:27:52;;;;;;;5.67;5.17;;;11.30;99.90;;;;;;5044659;28;20231;-45
2022/06/17 03:30:24;;;;;;;6.97;5.63;;;11.30;99.90;;;;;;5026144;28;21991;-44
2022/06/17 03:32:59;;;;;;;6.23;5.73;;;11.30;99.90;;;;;;5041569;28;20737;-47
2022/06/17 03:35:31;;;;;;;6.20;5.60;;;11.30;99.90;;;;;;5043683;28;20291;-46
2022/06/17 03:38:02;;;;;;;7.43;5.77;;;11.30;99.90;;;;;;5036536;28;20213;-47
2022/06/17 03:40:38;;;;;;;8.37;5.70;;;11.30;99.90;;;;;;5043447;28;20246;-46
2022/06/17 03:43:11;;;;;;;6.37;5.77;;;11.30;99.90;;;;;;5022275;28;20707;-46
2022/06/17 03:45:45;;;;;;;9.13;6.33;;;11.20;99.90;;;;;;5030456;28;20199;-45
2022/06/17 03:48:19;;;;;;;7.07;6.37;;;11.20;99.90;;;;;;5040065;28;20207;-45
2022/06/17 03:50:48;;;;;;;5.40;4.87;;;11.20;99.90;;;;;;5044367;28;20327;-47
2022/06/17 03:53:25;;;;;;;5.50;5.10;;;11.20;99.90;;;;;;5033227;28;20557;-44
2022/06/17 03:55:54;;;;;;;7.07;5.73;;;11.20;99.90;;;;;;5043877;28;20257;-44
2022/06/17 03:58:24;;;;;;;6.37;5.73;;;11.20;99.90;;;;;;5041177;28;20257;-45
2022/06/17 04:01:00;;;;;;;6.87;6.17;;;11.30;99.90;;;;;;5038732;28;20277;-46
2022/06/17 04:03:30;;;;;;;8.07;6.20;;;11.30;99.90;;;;;;5035068;28;20210;-44
2022/06/17 04:06:01;;;;;;;7.00;5.73;;;11.30;99.90;;;;;;5042699;28;20217;-46
2022/06/17 04:08:31;;;;;;;6.77;6.07;;;11.30;99.90;;;;;;5029992;28;20227;-45
2022/06/17 04:10:59;;;;;;;7.37;6.60;;;11.30;99.90;;;;;;5042487;28;20219;-49
2022/06/17 04:13:32;;;;;;;7.10;6.00;;;11.40;99.90;;;;;;5041567;28;20203;-44
2022/06/17 04:16:15;;;;;;;8.13;7.00;;;11.40;99.90;;;;;;5032213;28;20229;-46
2022/06/17 04:18:43;;;;;;;7.03;6.33;;;11.50;99.90;;;;;;5043101;28;20219;-49
2022/06/17 04:21:13;;;;;;;8.57;6.77;;;11.50;99.90;;;;;;5038149;28;20242;-47
2022/06/17 04:23:42;;;;;;;6.10;5.63;;;11.60;99.90;;;;;;5035502;28;20226;-46
2022/06/17 04:26:19;;;;;;;7.07;6.37;;;11.70;99.90;;;;;;5040741;28;20207;-45
2022/06/17 04:28:52;;;;;;;7.40;6.53;;;11.70;99.90;;;;;;5043383;28;20223;-46
2022/06/17 04:31:26;;;;;;;6.57;5.97;;;11.80;99.90;;;;;;5034820;28;20211;-47
2022/06/17 04:34:04;;;;;;;7.40;6.47;;;11.90;99.90;;;;;;5027156;28;20226;-49
2022/06/17 04:36:36;;;;;;;7.17;6.43;;;11.90;99.90;;;;;;5042839;28;20285;-44
2022/06/17 04:39:17;;;;;;;8.60;7.27;;;12.00;99.90;;;;;;5036376;28;20261;-48
2022/06/17 04:41:51;;;;;;;7.30;6.60;;;12.10;99.90;;;;;;5042945;28;20234;-44
2022/06/17 04:44:28;;;;;;;9.90;7.10;;;12.20;99.90;;;;;;5040710;28;20368;-45
2022/06/17 04:47:00;;;;;;;9.93;6.80;;;12.30;99.90;;;;;;5036139;28;20207;-47
2022/06/17 04:49:53;;;;;;;10.67;7.63;;;12.30;99.90;;;;;;5026153;28;20697;-45
2022/06/17 04:52:27;;;;;;;9.30;7.20;;;12.40;99.90;;;;;;5039664;28;20230;-44
2022/06/17 04:55:00;;;;;;;7.43;6.53;;;12.50;99.90;;;;;;5033107;28;20211;-48
2022/06/17 04:57:52;;;;;;;8.70;7.30;;;12.60;99.90;;;;;;5044177;28;20201;-47
2022/06/17 05:00:23;;;;;;;9.53;7.77;;;12.60;99.90;;;;;;5039481;28;20249;-46
2022/06/17 05:02:55;;;;;;;10.27;8.80;;;12.70;99.90;;;;;;5042370;28;20202;-47
2022/06/17 05:05:42;;;;;;;9.80;8.00;;;12.80;99.90;;;;;;5027397;28;20222;-47
2022/06/17 05:08:14;;;;;;;10.13;8.20;;;12.80;99.90;;;;;;5040359;28;20203;-49
2022/06/17 05:10:46;;;;;;;9.23;8.17;;;12.90;99.90;;;;;;5026234;28;20227;-49
2022/06/17 05:13:19;;;;;;;9.97;8.90;;;13.00;99.90;;;;;;5038318;28;20199;-45
2022/06/17 05:15:48;;;;;;;10.57;9.17;;;13.10;99.90;;;;;;5042392;28;20226;-45
2022/06/17 05:18:15;;;;;;;11.33;9.17;;;13.30;99.90;;;;;;5038703;28;20187;-45
2022/06/17 05:20:43;;;;;;;11.43;9.20;;;13.40;99.90;;;;;;5028300;28;20214;-44
2022/06/17 05:23:13;;;;;;;12.07;9.03;;;13.60;99.90;;;;;;5035265;28;20249;-47
2022/06/17 05:25:42;;;;;;;12.17;8.83;;;13.70;99.90;;;;;;5042225;28;20207;-45
2022/06/17 05:28:12;;;;;;;14.10;8.93;;;13.80;99.90;;;;;;5031720;28;20627;-49
2022/06/17 05:30:41;;;;;;;10.93;9.53;;;13.90;99.90;;;;;;5042487;28;20789;-45
2022/06/17 05:33:15;;;;;;;10.60;9.17;;;14.00;99.90;;;;;;5038039;28;20207;-45
2022/06/17 05:35:43;;;;;;;13.53;9.73;;;14.10;99.90;;;;;;5027839;28;20204;-47
2022/06/17 05:38:12;;;;;;;12.40;11.03;;;14.20;99.90;;;;;;5038220;28;20191;-45
2022/06/17 05:40:40;;;;;;;14.27;11.80;;;14.20;99.90;;;;;;5042400;28;20231;-44
2022/06/17 05:43:07;;;;;;;16.37;11.83;;;14.40;99.90;;;;;;5032234;28;20206;-47
2022/06/17 05:45:34;;;;;;;16.60;13.07;;;14.50;99.90;;;;;;5041227;28;20711;-48
2022/06/17 05:48:10;;;;;;;13.33;11.60;;;14.60;99.90;;;;;;5037955;28;20227;-46
2022/06/17 05:50:53;;;;;;;16.13;12.60;;;14.70;99.90;;;;;;5041077;28;20219;-47
2022/06/17 05:53:38;;;;;;;17.27;12.93;;;14.80;99.90;;;;;;5042134;28;20721;-47
2022/06/17 05:56:16;;;;;;;19.00;13.73;;;14.90;99.90;;;;;;5037748;28;20199;-48
2022/06/17 05:58:44;;;;;;;17.27;13.20;;;14.90;99.90;;;;;;5031014;28;20196;-46
2022/06/17 06:01:11;;;;;;;16.37;12.97;;;15.00;99.90;;;;;;5018513;28;20212;-49
2022/06/17 06:03:41;;;;;;;16.33;12.60;;;15.10;99.90;;;;;;5022091;28;20235;-50
2022/06/17 06:06:09;;;;;;;15.87;13.03;;;15.20;99.90;;;;;;5019030;28;20211;-45
2022/06/17 06:08:36;;;;;;;16.87;13.27;;;15.30;99.90;;;;;;5020653;28;20218;-46
2022/06/17 06:11:04;;;;;;;14.90;12.47;;;15.50;99.90;;;;;;5039301;28;20227;-48
2022/06/17 06:13:34;;;;;;;14.53;11.60;;;15.50;99.90;;;;;;5031469;28;20200;-46
2022/06/17 06:16:02;;;;;;;14.90;12.17;;;15.60;99.90;;;;;;5040258;28;20230;-50
2022/06/17 06:18:36;;;;;;;13.60;10.30;;;15.70;99.90;;;;;;5042699;28;20273;-48
2022/06/17 06:21:18;;;;;;;10.57;8.13;;;15.70;99.90;;;;;;5036837;28;20211;-52
2022/06/17 06:23:47;;;;;;;12.13;8.03;;;15.80;99.90;;;;;;5023016;28;20554;-46
2022/06/17 06:26:21;;;;;;;10.20;7.90;;;15.90;99.90;;;;;;5038101;28;20219;-51
2022/06/17 06:28:56;;;;;;;9.87;6.57;;;16.00;99.90;;;;;;5036603;28;20221;-46
2022/06/17 06:31:28;;;;;;;6.17;5.53;;;16.10;99.90;;;;;;5043911;28;20215;-49
2022/06/17 06:33:57;;;;;;;8.93;6.40;;;16.10;99.90;;;;;;5045913;28;20210;-47
2022/06/17 06:36:28;;;;;;;6.30;4.87;;;16.20;99.90;;;;;;5043801;28;20195;-45
2022/06/17 06:38:55;;;;;;;7.00;5.80;;;16.20;99.90;;;;;;5040995;28;20238;-51
2022/06/17 06:41:22;;;;;;;6.53;5.20;;;16.30;99.90;;;;;;5031970;28;20222;-46
2022/06/17 06:43:51;;;;;;;6.30;5.27;;;16.40;99.90;;;;;;5045303;28;20229;-45
2022/06/17 06:46:36;;;;;;;8.23;5.63;;;16.40;99.90;;;;;;5041520;28;20221;-46
2022/06/17 06:49:05;;;;;;;5.30;4.80;;;16.50;99.90;;;;;;5042684;28;20225;-49
2022/06/17 06:51:34;;;;;;;6.77;4.90;;;16.50;99.90;;;;;;5044457;28;20596;-45
2022/06/17 06:54:21;;;;;;;6.57;4.90;;;16.70;99.90;;;;;;5042603;28;20206;-45
2022/06/17 06:56:51;;;;;;;5.23;4.80;;;16.80;99.90;;;;;;5031138;28;20227;-46
2022/06/17 06:59:18;;;;;;;6.10;4.70;;;16.80;99.90;;;;;;5034365;28;20317;-45
2022/06/17 07:01:45;;;;;;;3.90;3.60;;;16.90;99.90;;;;;;5044777;28;20592;-51
2022/06/17 07:04:13;;;;;;;3.87;3.57;;;16.90;99.90;;;;;;5040448;28;20199;-50
2022/06/17 07:06:41;;;;;;;5.00;4.27;;;17.00;99.90;;;;;;5044782;28;20565;-50
2022/06/17 07:09:12;;;;;;;9.47;4.00;;;17.10;99.90;;;;;;5040885;28;20242;-48
2022/06/17 07:11:39;;;;;;;4.90;3.30;;;17.20;99.90;;;;;;5031069;28;20291;-45
2022/06/17 07:14:06;;;;;;;4.03;3.07;;;17.20;99.90;;;;;;5037487;28;20196;-46
2022/06/17 07:16:33;;;;;;;4.07;3.43;;;17.30;99.90;;;;;;5044443;28;20203;-45
2022/06/17 07:19:00;;;;;;;3.33;3.10;;;17.40;99.90;;;;;;5044447;28;20252;-46
2022/06/17 07:21:27;;;;;;;3.93;3.07;;;17.40;99.90;;;;;;5041277;28;20211;-47
2022/06/17 07:23:55;;;;;;;4.70;3.13;;;17.60;99.90;;;;;;5044899;28;20195;-47
2022/06/17 07:26:24;;;;;;;5.17;3.33;;;17.70;99.90;;;;;;5028948;28;20211;-45
2022/06/17 07:28:53;;;;;;;4.80;3.40;;;17.70;99.90;;;;;;5045848;28;20269;-46
2022/06/17 07:31:21;;;;;;;4.67;2.90;;;17.70;99.90;;;;;;5035953;28;20280;-45
2022/06/17 07:33:48;;;;;;;3.60;3.30;;;17.80;99.90;;;;;;5045610;28;20249;-46
2022/06/17 07:39:53;;;;;;;3.70;3.20;;;17.90;99.90;;;;;;5041834;28;20269;-45
2022/06/17 07:41:52;;;;;;;4.33;3.30;;;18.00;99.90;;;;;;5044224;28;20229;-49
2022/06/17 07:44:20;;;;;;;5.77;3.20;;;18.20;99.90;;;;;;5028969;28;20192;-48
2022/06/17 07:46:47;;;;;;;7.37;3.30;;;18.30;99.90;;;;;;5036666;28;20218;-44
2022/06/17 07:49:14;;;;;;;3.57;2.93;;;18.30;99.90;;;;;;5041768;28;20973;-44
2022/06/17 07:51:41;;;;;;;3.63;2.60;;;18.40;99.90;;;;;;5043936;28;20215;-43
2022/06/17 07:54:09;;;;;;;3.13;2.80;;;18.40;99.90;;;;;;5041330;28;20207;-44
2022/06/17 07:56:36;;;;;;;3.17;2.93;;;18.50;99.90;;;;;;5045408;28;20195;-44
2022/06/17 07:59:03;;;;;;;3.97;2.80;;;18.50;99.90;;;;;;5027875;28;20203;-43
2022/06/17 08:01:30;;;;;;;6.00;3.33;;;18.60;99.90;;;;;;5043797;28;20218;-48
2022/06/17 08:03:57;;;;;;;3.70;3.37;;;18.70;99.90;;;;;;5037137;28;20222;-46
2022/06/17 08:06:25;;;;;;;4.83;2.50;;;18.80;99.90;;;;;;5042769;28;20278;-49
2022/06/17 08:08:51;;;;;;;3.60;2.00;;;18.80;99.90;;;;;;5045245;28;20222;-49
2022/06/17 08:11:19;;;;;;;3.37;2.63;;;18.90;99.90;;;;;;5041480;28;20215;-50
2022/06/17 08:13:46;;;;;;;3.77;2.50;;;19.00;99.30;;;;;;5044870;28;20571;-44
2022/06/17 08:16:14;;;;;;;3.00;2.70;;;19.10;99.20;;;;;;5026993;28;20203;-48
2022/06/17 08:18:42;;;;;;;2.73;2.43;;;19.10;98.80;;;;;;5038224;28;20199;-49
2022/06/17 08:21:11;;;;;;;2.70;2.20;;;19.20;98.30;;;;;;5039990;28;20697;-44
2022/06/17 08:23:38;;;;;;;3.67;2.87;;;19.30;98.30;;;;;;5043510;28;20381;-52
2022/06/17 08:26:04;;;;;;;2.80;2.33;;;19.40;97.60;;;;;;5041923;28;20211;-49
2022/06/17 08:28:33;;;;;;;2.97;2.10;;;19.70;97.60;;;;;;5043926;28;20668;-47
2022/06/17 08:31:00;;;;;;;5.23;2.90;;;19.70;97.20;;;;;;5028662;28;20912;-45
2022/06/17 08:33:29;;;;;;;2.47;2.27;;;19.70;96.50;;;;;;5035666;28;20270;-51
2022/06/17 08:36:00;;;;;;;7.00;2.93;;;19.80;96.10;;;;;;5043857;28;20207;-45
2022/06/17 08:38:30;;;;;;;2.67;2.20;;;20.00;96.00;;;;;;5042822;28;20191;-50
2022/06/17 08:40:59;;;;;;;2.40;1.93;;;20.20;95.20;;;;;;5043330;28;20749;-45
2022/06/17 08:43:44;;;;;;;2.57;1.97;;;20.30;94.70;;;;;;5042583;28;20858;-49
2022/06/17 08:46:20;;;;;;;2.60;1.90;;;20.40;94.50;;;;;;5022395;28;20656;-46
2022/06/17 08:49:18;;;;;;;3.80;2.43;;;20.50;94.50;;;;;;5040638;28;20695;-48
2022/06/17 08:51:58;;;;;;;2.20;2.00;;;20.60;93.80;;;;;;5034188;28;20314;-46
2022/06/17 08:54:37;;;;;;;4.73;1.83;;;20.70;93.70;;;;;;5038804;28;20200;-48
2022/06/17 08:57:12;;;;;;;2.80;1.90;;;20.70;94.00;;;;;;5041868;28;20222;-47
2022/06/17 09:00:11;;;;;;;2.73;2.00;;;20.80;94.40;;;;;;5044309;28;20187;-48
2022/06/17 09:03:08;;;;;;;2.57;2.00;;;20.80;93.80;;;;;;5020136;28;20215;-44
2022/06/17 09:05:49;;;;;;;3.77;1.77;;;20.80;94.10;;;;;;5037052;28;20206;-44
2022/06/17 09:08:27;;;;;;;4.27;2.17;;;21.00;94.20;;;;;;5034955;28;20202;-45
2022/06/17 09:11:07;;;;;;;3.23;2.13;;;21.00;93.60;;;;;;5043367;28;20234;-51
2022/06/17 09:13:46;;;;;;;4.27;2.30;;;21.00;93.90;;;;;;5043527;28;20664;-45
2022/06/17 09:16:20;;;;;;;2.57;2.33;;;21.00;93.80;;;;;;5040119;28;21051;-45
2022/06/17 09:18:55;;;;;;;2.80;2.00;;;21.10;94.50;;;;;;5023724;28;20214;-44
2022/06/17 09:21:26;;;;;;;2.83;1.90;;;21.20;93.70;;;;;;5033718;28;20230;-45
2022/06/17 09:23:57;;;;;;;4.17;2.37;;;21.30;93.30;;;;;;5042798;28;20208;-49
2022/06/17 09:26:29;;;;;;;3.10;2.40;;;21.30;93.20;;;;;;5041405;28;20484;-46
2022/06/17 09:29:00;;;;;;;2.97;2.10;;;21.20;92.70;;;;;;5042775;28;20215;-46
2022/06/17 09:31:33;;;;;;;3.93;2.30;;;21.20;93.80;;;;;;5041753;28;20219;-49
2022/06/17 09:34:08;;;;;;;2.30;2.03;;;21.40;93.00;;;;;;5027728;28;20211;-47
2022/06/17 09:36:41;;;;;;;2.53;2.30;;;21.50;92.50;;;;;;5036572;28;20199;-47
2022/06/17 09:39:13;;;;;;;3.67;2.77;;;21.70;92.70;;;;;;5040175;28;20207;-46
2022/06/17 09:41:45;;;;;;;3.13;2.83;;;21.90;91.80;;;;;;5037085;28;20261;-48
2022/06/17 09:44:17;;;;;;;2.93;2.43;;;21.90;91.50;;;;;;5039291;28;20269;-47
2022/06/17 09:46:49;;;;;;;3.23;2.60;;;21.90;91.20;;;;;;5043613;28;20207;-48
2022/06/17 09:49:26;;;;;;;3.03;2.57;;;21.90;90.70;;;;;;5024641;28;20203;-51
2022/06/17 09:52:01;;;;;;;3.97;2.10;;;21.90;90.30;;;;;;5035729;28;20226;-50
2022/06/17 09:54:35;;;;;;;3.47;2.00;;;21.90;90.50;;;;;;5038442;28;20905;-46
2022/06/17 09:57:09;;;;;;;3.80;2.10;;;21.90;90.70;;;;;;5041365;28;20199;-47
2022/06/17 09:59:41;;;;;;;3.50;2.40;;;21.90;90.40;;;;;;5043446;28;20195;-46
2022/06/17 10:02:21;;;;;;;5.80;2.83;;;21.90;90.20;;;;;;5033110;28;20226;-45
2022/06/17 10:04:51;;;;;;;3.23;2.70;;;21.80;90.60;;;;;;5042993;28;20202;-49
2022/06/17 10:07:25;;;;;;;2.60;2.50;;;21.80;90.80;;;;;;5026821;28;20203;-49
2022/06/17 10:10:03;;;;;;;5.33;2.90;;;22.00;90.40;;;;;;5032735;28;20214;-46
2022/06/17 10:12:39;;;;;;;3.10;2.87;;;22.10;90.90;;;;;;5041948;28;20195;-48
2022/06/17 10:15:23;;;;;;;6.83;2.77;;;22.20;90.30;;;;;;5039802;28;20676;-47
2022/06/17 10:20:57;;;;;;;5.90;2.87;;;22.20;90.30;;;;;;5028124;28;20221;-49
2022/06/17 10:23:36;;;;;;;4.60;3.07;;;22.20;90.00;;;;;;5033280;28;20221;-47
2022/06/17 10:26:20;;;;;;;3.75;2.80;;;22.20;89.20;;;;;;5035568;28;20199;-49
2022/06/17 10:29:12;;;;;;;3.85;2.45;;;22.20;87.40;;;;;;5043180;28;20191;-49
2022/06/17 10:31:42;;;;;;;4.53;2.92;;;22.30;89.00;;;;;;5036694;28;20227;-48
2022/06/17 10:34:14;;;;;;;3.35;3.08;;;22.30;89.30;;;;;;5033338;28;20585;-45
2022/06/17 10:36:45;;;;;;;4.53;2.90;;;22.40;89.40;;;;;;5028814;28;20214;-44
2022/06/17 10:39:15;;;;;;;4.75;2.78;;;22.50;88.80;;;;;;5031743;28;20208;-47
2022/06/17 10:41:43;;;;;;;2.40;2.20;;;22.60;87.70;;;;;;5038419;28;20269;-46
2022/06/17 10:44:12;;;;;;;4.68;2.65;;;22.70;85.70;;;;;;5038897;28;20200;-46
2022/06/17 10:46:45;;;;;;;2.30;2.10;;;22.70;84.80;;;;;;5043023;28;20203;-45
2022/06/17 10:49:16;;;;;;;4.72;2.50;;;22.70;85.20;;;;;;5038905;28;20782;-45
2022/06/17 10:51:47;;;;;;;3.30;2.50;;;22.70;83.00;;;;;;5028940;28;20571;-44
2022/06/17 10:54:21;;;;;;;3.63;2.97;;;22.60;81.50;;;;;;5038195;28;20794;-44
2022/06/17 10:57:07;;;;;;;3.30;3.00;;;22.60;80.30;;;;;;5036165;28;20278;-47
2022/06/17 10:59:36;;;;;;;2.78;2.40;;;22.60;80.60;;;;;;5036866;28;20206;-45
2022/06/17 11:02:04;;;;;;;5.70;2.55;;;22.50;80.40;;;;;;5040538;28;20223;-50
2022/06/17 11:04:34;;;;;;;2.92;2.70;;;22.70;79.70;;;;;;5041294;28;21049;-45
2022/06/17 11:07:06;;;;;;;4.63;2.65;;;22.60;78.40;;;;;;5032965;28;20219;-47
2022/06/17 11:09:38;;;;;;;4.03;2.80;;;22.60;80.20;;;;;;5038622;28;20204;-45
2022/06/17 11:12:16;;;;;;;2.90;2.40;;;22.70;79.50;;;;;;5031964;28;20297;-48
2022/06/17 11:14:52;;;;;;;4.95;2.28;;;22.70;81.30;;;;;;5040829;28;20199;-44
2022/06/17 11:17:27;;;;;;;4.53;2.22;;;22.80;81.70;;;;;;5042273;28;20201;-46
2022/06/17 11:19:57;;;;;;;3.17;2.58;;;22.80;80.90;;;;;;5045180;28;20652;-44
2022/06/17 11:22:31;;;;;;;4.35;2.20;;;22.80;80.30;;;;;;5033157;28;20283;-45
2022/06/17 11:25:04;;;;;;;4.32;2.60;;;22.90;80.30;;;;;;5027282;28;20210;-46
2022/06/17 11:27:36;;;;;;;2.80;2.30;;;23.00;79.00;;;;;;5037904;28;20214;-45
2022/06/17 11:30:23;;;;;;;4.22;2.28;;;23.00;78.50;;;;;;5043734;28;20222;-47
2022/06/17 11:32:53;;;;;;;4.88;2.20;;;23.00;78.70;;;;;;5045671;28;20595;-49
2022/06/17 11:35:27;;;;;;;4.80;2.95;;;22.90;78.20;;;;;;5042553;28;20970;-44
2022/06/17 11:37:58;;;;;;;3.50;2.17;;;22.90;77.20;;;;;;5045127;28;20716;-45
2022/06/17 11:40:27;;;;;;;2.85;2.20;;;23.00;78.70;;;;;;5027971;28;20223;-46
2022/06/17 11:42:55;;;;;;;4.47;2.05;;;23.00;77.60;;;;;;5035193;28;20206;-46
2022/06/17 11:45:26;;;;;;;2.00;1.90;;;23.00;77.80;;;;;;5042599;28;20194;-45
2022/06/17 11:47:59;;;;;;;2.58;1.80;;;23.10;77.70;;;;;;5045377;28;20199;-46
2022/06/17 11:50:31;;;;;;;3.20;2.30;;;23.00;76.80;;;;;;5043396;28;20946;-47
2022/06/17 11:53:06;;;;;;;3.67;2.15;;;23.00;77.40;;;;;;5043145;28;20249;-46
2022/06/17 11:55:41;;;;;;;2.58;2.00;;;23.00;75.30;;;;;;5030537;28;20210;-45
2022/06/17 11:58:08;;;;;;;2.08;1.98;;;23.00;76.70;;;;;;5035257;28;20210;-46
2022/06/17 12:00:48;;;;;;;4.88;2.63;;;23.00;77.10;;;;;;5045159;28;20584;-45
2022/06/17 12:03:18;;;;;;;4.38;2.20;;;23.00;75.30;;;;;;5041176;28;20210;-44
2022/06/17 12:05:57;;;;;;;3.50;2.47;;;22.90;76.50;;;;;;5045356;28;20207;-45
2022/06/17 12:08:29;;;;;;;2.95;2.38;;;23.10;76.00;;;;;;5037482;28;20191;-45
2022/06/17 12:11:02;;;;;;;2.65;2.38;;;23.10;75.40;;;;;;5039254;28;20307;-49
2022/06/17 12:13:34;;;;;;;3.38;2.83;;;22.90;76.80;;;;;;5031229;28;20234;-45
2022/06/17 12:16:08;;;;;;;7.38;2.35;;;22.90;76.30;;;;;;5043212;28;20580;-49
2022/06/17 12:18:38;;;;;;;4.85;2.47;;;22.90;76.40;;;;;;5045075;28;20199;-44
2022/06/17 12:21:19;;;;;;;4.63;2.53;;;22.90;76.60;;;;;;5041191;28;20223;-47
2022/06/17 12:23:52;;;;;;;3.67;2.00;;;22.80;77.70;;;;;;5044192;28;20562;-46
2022/06/17 12:26:25;;;;;;;2.50;2.30;;;22.90;77.80;;;;;;5037937;28;20187;-45
2022/06/17 12:29:00;;;;;;;3.72;2.47;;;22.90;77.00;;;;;;5022960;28;20215;-46
2022/06/17 12:31:36;;;;;;;2.88;2.55;;;22.90;76.70;;;;;;5042569;28;20827;-45
2022/06/17 12:34:12;;;;;;;4.20;2.45;;;22.80;75.80;;;;;;5042050;28;20230;-50
2022/06/17 12:36:43;;;;;;;2.67;2.42;;;22.80;75.90;;;;;;5044878;28;20195;-48
2022/06/17 12:39:17;;;;;;;2.88;2.20;;;22.90;76.00;;;;;;5040887;28;20204;-45
2022/06/17 12:42:00;;;;;;;2.65;2.25;;;23.00;76.80;;;;;;5044732;28;20219;-49
2022/06/17 12:44:42;;;;;;;2.17;2.05;;;23.10;76.80;;;;;;5030351;28;20187;-46
2022/06/17 12:47:16;;;;;;;4.30;2.65;;;23.10;76.50;;;;;;5041009;28;20203;-50
2022/06/17 12:55:54;;;;;;;2.55;2.20;;;23.30;76.00;;;;;;5043851;28;20255;-48
2022/06/17 12:58:51;;;;;;;2.33;2.17;;;23.60;75.70;;;;;;5020757;28;20960;-49
2022/06/17 13:01:21;;;;;;;4.82;2.38;;;23.70;76.00;;;;;;5033092;28;20949;-48
2022/06/17 13:04:07;;;;;;;3.78;2.22;;;24.10;74.90;;;;;;5044087;28;20203;-51
2022/06/17 13:06:45;;;;;;;2.97;2.72;;;24.70;72.40;;;;;;5038696;28;20211;-47
2022/06/17 13:09:19;;;;;;;10.10;2.63;;;24.90;74.50;;;;;;5040267;28;20202;-47
2022/06/17 13:11:55;;;;;;;3.90;2.50;;;25.20;73.50;;;;;;5043821;28;20623;-50
2022/06/17 13:14:29;;;;;;;3.90;2.58;;;25.30;72.30;;;;;;5026451;28;20211;-50
2022/06/17 13:17:03;;;;;;;2.90;2.22;;;25.50;70.20;;;;;;5036288;28;20229;-45
2022/06/17 13:19:39;;;;;;;3.67;2.85;;;25.50;71.10;;;;;;5037225;28;20203;-49
2022/06/17 13:22:13;;;;;;;3.30;3.00;;;25.60;70.00;;;;;;5040469;28;20215;-49
2022/06/17 13:24:47;;;;;;;2.72;2.50;;;25.40;69.60;;;;;;5043111;28;20202;-46